sensor_id;sensor_type;location;lat;lon;timestamp;temperature;humidity
20315;DHT22;10315;50.958;13.080;2024-02-15T00:01:39;8.20;99.90
20315;DHT22;10315;50.958;13.080;2024-02-15T00:11:42;8.30;99.90
20315;DHT22;10315;50.958;13.080;2024-02-15T00:21:43;8.30;99.90
20315;DHT22;10315;50.958;13.080;2024-02-15T00:31:46;8.20;99.90
20315;DHT22;10315;50.958;13.080;2024-02-15T00:41:49;8.30;99.90
20315;DHT22;10315;50.958;13.080;2024-02-15T00:51:53;8.10;99.90
20315;DHT22;10315;50.958;13.080;2024-02-15T01:01:54;8.20;99.90
20315;DHT22;10315;50.958;13.080;2024-02-15T01:11:57;8.20;99.90
20315;DHT22;10315;50.958;13.080;2024-02-15T01:21:59;8.20;99.90
20315;DHT22;10315;50.958;13.080;2024-02-15T01:32:02;8.40;99.90
20315;DHT22;10315;50.958;13.080;2024-02-15T01:42:05;8.40;99.90
20315;DHT22;10315;50.958;13.080;2024-02-15T01:52:09;8.50;99.90
20315;DHT22;10315;50.958;13.080;2024-02-15T02:02:13;8.50;99.90
20315;DHT22;10315;50.958;13.080;2024-02-15T02:12:17;8.60;99.90
20315;DHT22;10315;50.958;13.080;2024-02-15T02:22:19;8.60;99.90
20315;DHT22;10315;50.958;13.080;2024-02-15T02:32:22;8.70;99.90
20315;DHT22;10315;50.958;13.080;2024-02-15T02:42:24;8.70;99.90
20315;DHT22;10315;50.958;13.080;2024-02-15T02:52:27;8.70;99.90
20315;DHT22;10315;50.958;13.080;2024-02-15T03:02:28;8.70;99.90
20315;DHT22;10315;50.958;13.080;2024-02-15T03:12:37;8.70;99.90
20315;DHT22;10315;50.958;13.080;2024-02-15T03:22:39;8.80;99.90
20315;DHT22;10315;50.958;13.080;2024-02-15T03:32:43;8.80;99.90
20315;DHT22;10315;50.958;13.080;2024-02-15T03:42:44;8.90;99.90
20315;DHT22;10315;50.958;13.080;2024-02-15T03:52:48;8.90;99.90
20315;DHT22;10315;50.958;13.080;2024-02-15T04:02:50;8.90;99.90
20315;DHT22;10315;50.958;13.080;2024-02-15T04:12:53;8.90;99.90
20315;DHT22;10315;50.958;13.080;2024-02-15T04:22:54;8.90;99.90
20315;DHT22;10315;50.958;13.080;2024-02-15T04:32:59;8.90;99.90
20315;DHT22;10315;50.958;13.080;2024-02-15T04:43:01;8.80;99.90
20315;DHT22;10315;50.958;13.080;2024-02-15T04:53:05;8.80;99.90
20315;DHT22;10315;50.958;13.080;2024-02-15T05:03:07;8.80;99.90
20315;DHT22;10315;50.958;13.080;2024-02-15T05:13:10;8.80;99.90
20315;DHT22;10315;50.958;13.080;2024-02-15T05:23:14;8.80;99.90
20315;DHT22;10315;50.958;13.080;2024-02-15T05:33:19;8.80;99.90
20315;DHT22;10315;50.958;13.080;2024-02-15T05:43:21;8.90;99.90
20315;DHT22;10315;50.958;13.080;2024-02-15T05:53:25;8.90;99.90
20315;DHT22;10315;50.958;13.080;2024-02-15T06:03:27;8.90;99.90
20315;DHT22;10315;50.958;13.080;2024-02-15T06:13:31;9.00;99.90
20315;DHT22;10315;50.958;13.080;2024-02-15T06:23:33;9.00;99.90
20315;DHT22;10315;50.958;13.080;2024-02-15T06:33:36;9.10;99.90
20315;DHT22;10315;50.958;13.080;2024-02-15T06:43:55;9.10;99.90
20315;DHT22;10315;50.958;13.080;2024-02-15T06:53:59;9.10;99.90
20315;DHT22;10315;50.958;13.080;2024-02-15T07:04:00;9.20;99.90
20315;DHT22;10315;50.958;13.080;2024-02-15T07:14:04;9.20;99.90
20315;DHT22;10315;50.958;13.080;2024-02-15T07:24:08;9.30;99.90
20315;DHT22;10315;50.958;13.080;2024-02-15T07:34:11;9.40;99.90
20315;DHT22;10315;50.958;13.080;2024-02-15T07:44:13;9.50;99.90
20315;DHT22;10315;50.958;13.080;2024-02-15T07:54:15;9.60;99.90
20315;DHT22;10315;50.958;13.080;2024-02-15T08:04:18;9.90;99.90
20315;DHT22;10315;50.958;13.080;2024-02-15T08:14:22;13.90;99.90
20315;DHT22;10315;50.958;13.080;2024-02-15T08:24:23;15.10;99.90
20315;DHT22;10315;50.958;13.080;2024-02-15T08:34:26;12.10;99.90
20315;DHT22;10315;50.958;13.080;2024-02-15T08:44:28;11.30;99.90
20315;DHT22;10315;50.958;13.080;2024-02-15T08:54:31;11.00;99.90
20315;DHT22;10315;50.958;13.080;2024-02-15T09:04:33;11.60;99.90
20315;DHT22;10315;50.958;13.080;2024-02-15T09:14:36;11.50;99.90
20315;DHT22;10315;50.958;13.080;2024-02-15T09:24:38;11.90;99.90
20315;DHT22;10315;50.958;13.080;2024-02-15T09:34:40;11.80;99.90
20315;DHT22;10315;50.958;13.080;2024-02-15T09:44:43;12.00;99.90
20315;DHT22;10315;50.958;13.080;2024-02-15T09:54:46;11.70;99.90
20315;DHT22;10315;50.958;13.080;2024-02-15T10:04:48;11.60;99.90
20315;DHT22;10315;50.958;13.080;2024-02-15T10:14:52;11.50;99.90
20315;DHT22;10315;50.958;13.080;2024-02-15T10:25:10;11.60;99.90
20315;DHT22;10315;50.958;13.080;2024-02-15T10:35:20;11.70;99.90
20315;DHT22;10315;50.958;13.080;2024-02-15T10:45:22;11.90;99.90
20315;DHT22;10315;50.958;13.080;2024-02-15T10:55:36;12.40;99.90
20315;DHT22;10315;50.958;13.080;2024-02-15T11:05:40;12.80;99.90
20315;DHT22;10315;50.958;13.080;2024-02-15T11:15:47;13.10;99.90
20315;DHT22;10315;50.958;13.080;2024-02-15T11:25:51;13.30;99.90
20315;DHT22;10315;50.958;13.080;2024-02-15T11:36:04;12.60;99.90
20315;DHT22;10315;50.958;13.080;2024-02-15T11:46:06;12.70;99.90
20315;DHT22;10315;50.958;13.080;2024-02-15T11:56:12;12.70;99.90
20315;DHT22;10315;50.958;13.080;2024-02-15T12:06:17;12.60;99.90
20315;DHT22;10315;50.958;13.080;2024-02-15T12:16:38;12.70;99.90
20315;DHT22;10315;50.958;13.080;2024-02-15T12:27:00;13.10;99.90
20315;DHT22;10315;50.958;13.080;2024-02-15T12:37:07;13.10;99.90
20315;DHT22;10315;50.958;13.080;2024-02-15T12:47:10;13.60;99.90
20315;DHT22;10315;50.958;13.080;2024-02-15T12:57:19;14.20;99.90
20315;DHT22;10315;50.958;13.080;2024-02-15T13:07:21;15.30;99.90
20315;DHT22;10315;50.958;13.080;2024-02-15T13:17:23;14.20;99.90
20315;DHT22;10315;50.958;13.080;2024-02-15T13:27:27;13.90;99.90
20315;DHT22;10315;50.958;13.080;2024-02-15T13:37:30;13.50;99.90
20315;DHT22;10315;50.958;13.080;2024-02-15T13:47:31;13.40;99.90
20315;DHT22;10315;50.958;13.080;2024-02-15T13:57:34;13.20;99.90
20315;DHT22;10315;50.958;13.080;2024-02-15T14:07:36;13.10;99.90
20315;DHT22;10315;50.958;13.080;2024-02-15T14:17:39;13.40;99.90
20315;DHT22;10315;50.958;13.080;2024-02-15T14:27:41;13.70;99.90
20315;DHT22;10315;50.958;13.080;2024-02-15T14:37:44;13.70;99.90
20315;DHT22;10315;50.958;13.080;2024-02-15T14:47:47;13.50;99.90
20315;DHT22;10315;50.958;13.080;2024-02-15T14:57:49;13.30;99.90
20315;DHT22;10315;50.958;13.080;2024-02-15T15:07:51;13.30;99.90
20315;DHT22;10315;50.958;13.080;2024-02-15T15:18:12;13.80;99.90
20315;DHT22;10315;50.958;13.080;2024-02-15T15:28:13;13.70;99.90
20315;DHT22;10315;50.958;13.080;2024-02-15T15:38:16;13.30;99.90
20315;DHT22;10315;50.958;13.080;2024-02-15T15:48:18;13.00;99.90
20315;DHT22;10315;50.958;13.080;2024-02-15T15:58:21;12.70;99.90
20315;DHT22;10315;50.958;13.080;2024-02-15T16:08:24;12.50;99.90
20315;DHT22;10315;50.958;13.080;2024-02-15T16:18:28;12.20;99.90
20315;DHT22;10315;50.958;13.080;2024-02-15T16:28:30;11.90;99.90
20315;DHT22;10315;50.958;13.080;2024-02-15T16:38:33;11.90;99.90
20315;DHT22;10315;50.958;13.080;2024-02-15T16:48:36;11.60;99.90
20315;DHT22;10315;50.958;13.080;2024-02-15T16:58:39;11.30;99.90
20315;DHT22;10315;50.958;13.080;2024-02-15T17:08:40;11.20;99.90
20315;DHT22;10315;50.958;13.080;2024-02-15T17:18:43;11.00;99.90
20315;DHT22;10315;50.958;13.080;2024-02-15T17:28:46;10.80;99.90
20315;DHT22;10315;50.958;13.080;2024-02-15T17:38:49;10.70;99.90
20315;DHT22;10315;50.958;13.080;2024-02-15T17:48:51;10.60;99.90
20315;DHT22;10315;50.958;13.080;2024-02-15T17:58:54;10.60;99.90
20315;DHT22;10315;50.958;13.080;2024-02-15T18:08:55;10.40;99.90
20315;DHT22;10315;50.958;13.080;2024-02-15T18:18:58;10.00;99.90
20315;DHT22;10315;50.958;13.080;2024-02-15T18:29:00;9.90;99.90
20315;DHT22;10315;50.958;13.080;2024-02-15T18:39:03;9.80;99.90
20315;DHT22;10315;50.958;13.080;2024-02-15T18:49:05;9.60;99.90
20315;DHT22;10315;50.958;13.080;2024-02-15T18:59:08;9.60;99.90
20315;DHT22;10315;50.958;13.080;2024-02-15T19:09:09;9.70;99.90
20315;DHT22;10315;50.958;13.080;2024-02-15T19:19:12;9.80;99.90
20315;DHT22;10315;50.958;13.080;2024-02-15T19:29:14;9.70;99.90
20315;DHT22;10315;50.958;13.080;2024-02-15T19:39:17;9.70;99.90
20315;DHT22;10315;50.958;13.080;2024-02-15T19:49:19;9.70;99.90
20315;DHT22;10315;50.958;13.080;2024-02-15T19:59:22;9.60;99.90
20315;DHT22;10315;50.958;13.080;2024-02-15T20:09:24;9.50;99.90
20315;DHT22;10315;50.958;13.080;2024-02-15T20:19:29;9.60;99.90
20315;DHT22;10315;50.958;13.080;2024-02-15T20:29:32;9.30;99.90
20315;DHT22;10315;50.958;13.080;2024-02-15T20:39:37;9.00;99.90
20315;DHT22;10315;50.958;13.080;2024-02-15T20:49:38;8.90;99.90
20315;DHT22;10315;50.958;13.080;2024-02-15T20:59:41;8.80;99.90
20315;DHT22;10315;50.958;13.080;2024-02-15T21:09:43;8.70;99.90
20315;DHT22;10315;50.958;13.080;2024-02-15T21:19:46;8.60;99.90
20315;DHT22;10315;50.958;13.080;2024-02-15T21:29:47;8.60;99.90
20315;DHT22;10315;50.958;13.080;2024-02-15T21:39:51;8.70;99.90
20315;DHT22;10315;50.958;13.080;2024-02-15T21:49:53;8.60;99.90
20315;DHT22;10315;50.958;13.080;2024-02-15T21:59:56;8.60;99.90
20315;DHT22;10315;50.958;13.080;2024-02-15T22:09:57;8.60;99.90
20315;DHT22;10315;50.958;13.080;2024-02-15T22:20:00;8.60;99.90
20315;DHT22;10315;50.958;13.080;2024-02-15T22:30:02;8.50;99.90
20315;DHT22;10315;50.958;13.080;2024-02-15T22:40:07;8.60;99.90
20315;DHT22;10315;50.958;13.080;2024-02-15T22:50:09;8.70;99.90
20315;DHT22;10315;50.958;13.080;2024-02-15T23:00:12;8.70;99.90
20315;DHT22;10315;50.958;13.080;2024-02-15T23:10:14;8.80;99.90
20315;DHT22;10315;50.958;13.080;2024-02-15T23:20:17;8.60;99.90
20315;DHT22;10315;50.958;13.080;2024-02-15T23:30:19;8.60;99.90
20315;DHT22;10315;50.958;13.080;2024-02-15T23:40:22;8.50;99.90
20315;DHT22;10315;50.958;13.080;2024-02-15T23:50:24;8.30;99.90
